createdAt,value
2023-05-17T00:02:50.242Z,5.33
2023-05-17T00:05:56.282Z,5.20
2023-05-17T00:09:04.248Z,4.03
2023-05-17T00:12:10.516Z,4.63
2023-05-17T00:15:16.744Z,3.40
2023-05-17T00:18:22.840Z,3.57
2023-05-17T00:21:28.866Z,3.10
2023-05-17T00:24:36.195Z,3.50
2023-05-17T00:27:42.477Z,4.67
2023-05-17T00:30:48.312Z,6.97
2023-05-17T00:33:54.405Z,2.87
2023-05-17T00:37:00.394Z,4.97
2023-05-17T00:40:09.403Z,3.23
2023-05-17T00:43:15.556Z,3.77
2023-05-17T00:46:21.641Z,3.30
2023-05-17T00:49:27.978Z,4.63
2023-05-17T00:52:34.452Z,4.83
2023-05-17T00:55:42.046Z,2.77
2023-05-17T00:58:48.471Z,3.80
2023-05-17T01:01:56.081Z,4.80
2023-05-17T01:05:02.456Z,3.73
2023-05-17T01:08:08.669Z,3.47
2023-05-17T01:11:31.185Z,7.37
2023-05-17T01:14:50.054Z,6.33
2023-05-17T01:18:12.564Z,7.23
2023-05-17T01:21:38.162Z,3.13
2023-05-17T01:24:54.311Z,6.83
2023-05-17T01:28:05.066Z,3.43
2023-05-17T01:31:12.645Z,10.00
2023-05-17T01:34:26.570Z,3.90
2023-05-17T01:37:32.756Z,3.23
2023-05-17T01:40:45.320Z,5.47
2023-05-17T01:44:01.414Z,5.23
2023-05-17T01:47:13.232Z,3.80
2023-05-17T01:50:24.874Z,3.60
2023-05-17T01:53:38.703Z,5.67
2023-05-17T01:56:49.279Z,3.43
2023-05-17T01:59:58.898Z,4.87
2023-05-17T02:03:05.211Z,5.90
2023-05-17T02:06:11.817Z,3.57
2023-05-17T02:09:17.951Z,8.30
2023-05-17T02:12:24.315Z,5.17
2023-05-17T02:15:32.213Z,4.10
2023-05-17T02:18:40.545Z,4.00
2023-05-17T02:21:46.999Z,4.10
2023-05-17T02:24:52.999Z,3.00
2023-05-17T02:27:58.991Z,3.53
2023-05-17T02:31:06.447Z,3.47
2023-05-17T02:34:13.108Z,4.90
2023-05-17T02:37:19.500Z,3.67
2023-05-17T02:40:25.561Z,4.03
2023-05-17T02:43:31.790Z,3.43
2023-05-17T02:46:39.673Z,4.27
2023-05-17T02:49:46.014Z,3.27
2023-05-17T02:52:52.739Z,3.93
2023-05-17T02:55:59.178Z,3.93
2023-05-17T02:59:05.472Z,3.90
2023-05-17T03:02:13.101Z,3.90
2023-05-17T03:05:19.405Z,3.13
2023-05-17T03:08:25.235Z,3.63
2023-05-17T03:11:31.948Z,3.07
2023-05-17T03:14:38.354Z,3.90
2023-05-17T03:17:45.808Z,3.73
2023-05-17T03:20:52.150Z,4.77
2023-05-17T03:23:58.366Z,6.43
2023-05-17T03:27:05.118Z,4.07
2023-05-17T03:30:12.097Z,3.90
2023-05-17T03:33:19.922Z,4.77
2023-05-17T03:36:26.139Z,2.90
2023-05-17T03:39:32.529Z,4.07
2023-05-17T03:42:38.691Z,7.43
2023-05-17T03:45:45.056Z,15.57
2023-05-17T03:48:52.783Z,9.53
2023-05-17T03:51:58.821Z,4.53
2023-05-17T03:55:05.729Z,4.53
2023-05-17T03:58:12.066Z,5.07
2023-05-17T04:01:20.457Z,10.00
2023-05-17T04:04:28.557Z,5.43
2023-05-17T04:07:34.693Z,5.90
2023-05-17T04:10:42.214Z,4.97
2023-05-17T04:13:48.780Z,5.20
2023-05-17T04:16:55.202Z,6.33
2023-05-17T04:20:02.829Z,4.73
2023-05-17T04:23:10.511Z,10.33
2023-05-17T04:26:16.991Z,5.80
2023-05-17T04:29:23.017Z,5.00
2023-05-17T04:32:29.685Z,4.13
2023-05-17T04:35:38.496Z,6.23
2023-05-17T04:38:44.644Z,9.97
2023-05-17T04:41:50.716Z,17.13
2023-05-17T04:44:57.923Z,16.00
2023-05-17T04:48:04.399Z,12.87
2023-05-17T04:51:12.080Z,6.23
2023-05-17T04:54:18.524Z,6.97
2023-05-17T04:57:24.650Z,5.63
2023-05-17T05:00:31.280Z,6.27
2023-05-17T05:03:37.959Z,7.67
2023-05-17T05:06:45.896Z,9.70
2023-05-17T05:09:52.062Z,10.57
2023-05-17T05:12:58.250Z,9.43
2023-05-17T05:16:05.057Z,11.93
2023-05-17T05:19:11.673Z,9.73
2023-05-17T05:22:19.691Z,9.23
2023-05-17T05:25:26.283Z,7.53
2023-05-17T05:28:32.598Z,10.90
2023-05-17T05:31:38.548Z,9.27
2023-05-17T05:34:44.394Z,7.43
2023-05-17T05:37:51.688Z,7.80
2023-05-17T05:40:59.956Z,12.70
2023-05-17T05:44:06.597Z,8.40
2023-05-17T05:47:15.159Z,14.00
2023-05-17T05:50:21.433Z,8.10
2023-05-17T05:53:29.122Z,4.20
2023-05-17T05:56:35.333Z,5.33
2023-05-17T05:59:41.393Z,5.77
2023-05-17T06:02:47.718Z,4.73
2023-05-17T06:05:54.129Z,5.17
2023-05-17T06:09:01.640Z,3.20
2023-05-17T06:12:08.557Z,5.43
2023-05-17T06:15:14.948Z,4.90
2023-05-17T06:18:21.280Z,5.63
2023-05-17T06:21:27.631Z,3.10
2023-05-17T06:24:35.361Z,4.97
2023-05-17T06:27:41.913Z,4.20
2023-05-17T06:30:47.994Z,8.57
2023-05-17T06:33:54.300Z,6.17
2023-05-17T06:37:00.439Z,7.93
2023-05-17T06:40:16.727Z,5.73
2023-05-17T06:43:24.009Z,3.00
2023-05-17T06:46:30.178Z,5.03
2023-05-17T06:49:36.554Z,5.20
2023-05-17T06:52:42.939Z,3.13
2023-05-17T06:55:52.525Z,6.67
2023-05-17T06:58:58.838Z,5.07
2023-05-17T07:02:05.987Z,6.80
2023-05-17T07:05:12.355Z,3.57
2023-05-17T07:08:18.894Z,5.70
2023-05-17T07:11:26.890Z,5.97
2023-05-17T07:14:33.449Z,7.00
2023-05-17T07:17:39.942Z,4.50
2023-05-17T07:20:46.400Z,9.57
2023-05-17T07:23:52.622Z,5.47
2023-05-17T07:27:00.237Z,3.93
2023-05-17T07:30:08.283Z,4.00
2023-05-17T07:33:14.669Z,4.80
2023-05-17T07:36:20.886Z,3.40
2023-05-17T07:39:27.034Z,3.07
2023-05-17T07:42:34.691Z,3.10
2023-05-17T07:45:40.819Z,4.30
2023-05-17T07:48:47.031Z,4.07
2023-05-17T07:51:53.607Z,6.83
2023-05-17T07:54:59.601Z,5.03
2023-05-17T07:58:07.365Z,3.97
2023-05-17T08:01:13.977Z,8.93
2023-05-17T08:04:20.487Z,4.33
2023-05-17T08:07:26.935Z,3.77
2023-05-17T08:10:35.869Z,3.53
2023-05-17T08:13:44.389Z,3.40
2023-05-17T08:16:51.941Z,5.17
2023-05-17T08:19:58.176Z,2.40
2023-05-17T08:23:04.587Z,3.07
2023-05-17T08:26:12.659Z,4.07
2023-05-17T08:29:20.465Z,4.00
2023-05-17T08:32:27.518Z,7.70
2023-05-17T08:35:34.127Z,7.80
2023-05-17T08:38:41.452Z,5.40
2023-05-17T08:41:48.436Z,5.17
2023-05-17T08:44:57.043Z,3.53
2023-05-17T08:48:03.587Z,3.30
2023-05-17T08:51:11.787Z,10.33
2023-05-17T08:54:18.630Z,8.13
2023-05-17T08:57:28.324Z,5.40
2023-05-17T09:00:37.654Z,4.80
2023-05-17T09:03:48.651Z,4.67
2023-05-17T09:06:54.874Z,6.97
2023-05-17T09:10:01.005Z,2.73
2023-05-17T09:13:06.988Z,4.60
2023-05-17T09:16:17.858Z,3.23
2023-05-17T09:19:24.577Z,2.83
2023-05-17T09:22:31.204Z,2.60
2023-05-17T09:25:38.340Z,3.13
2023-05-17T09:28:44.904Z,2.80
2023-05-17T09:31:52.626Z,4.13
2023-05-17T09:35:02.800Z,2.67
2023-05-17T09:38:10.267Z,3.50
2023-05-17T09:41:16.796Z,5.63
2023-05-17T09:44:23.538Z,7.60
2023-05-17T09:47:31.975Z,2.03
2023-05-17T09:50:38.324Z,3.03
2023-05-17T09:53:44.673Z,5.13
2023-05-17T09:56:55.199Z,3.93
2023-05-17T10:00:01.569Z,8.63
2023-05-17T10:03:10.625Z,6.20
2023-05-17T10:06:33.225Z,3.60
2023-05-17T10:09:47.483Z,4.23
2023-05-17T10:12:54.969Z,3.30
2023-05-17T10:16:02.472Z,5.73
2023-05-17T10:19:12.594Z,6.00
2023-05-17T10:22:23.333Z,4.93
2023-05-17T10:25:31.330Z,6.07
2023-05-17T10:28:38.661Z,7.87
2023-05-17T10:31:46.671Z,4.13
2023-05-17T10:35:09.394Z,3.63
2023-05-17T10:38:18.324Z,3.40
2023-05-17T10:41:27.709Z,7.43
2023-05-17T10:44:35.030Z,2.70
2023-05-17T10:47:42.918Z,3.87
2023-05-17T10:51:01.032Z,3.00
2023-05-17T10:54:13.180Z,4.10
2023-05-17T10:57:46.817Z,5.67
2023-05-17T11:00:57.297Z,5.23
2023-05-17T11:04:22.492Z,3.00
2023-05-17T11:07:32.932Z,5.47
2023-05-17T11:10:39.150Z,6.23
2023-05-17T11:13:47.568Z,4.33
2023-05-17T11:16:58.533Z,6.27
2023-05-17T11:20:12.282Z,7.93
2023-05-17T11:23:24.404Z,3.53
2023-05-17T11:26:35.765Z,3.47
2023-05-17T11:29:42.472Z,4.23
2023-05-17T11:32:50.798Z,3.13
2023-05-17T11:35:57.723Z,4.00
2023-05-17T11:39:17.563Z,6.93
2023-05-17T11:42:26.733Z,4.00
2023-05-17T11:45:43.760Z,2.77
2023-05-17T11:48:52.475Z,3.40
2023-05-17T11:51:59.053Z,3.87
2023-05-17T11:55:07.634Z,2.20
2023-05-17T11:58:16.530Z,2.47
2023-05-17T12:01:22.789Z,3.20
2023-05-17T12:04:30.149Z,4.80
2023-05-17T12:07:38.673Z,4.37
2023-05-17T12:10:51.974Z,1.97
2023-05-17T12:13:58.660Z,2.10
2023-05-17T12:17:09.284Z,2.00
2023-05-17T12:20:17.076Z,2.07
2023-05-17T12:23:32.344Z,2.20
2023-05-17T12:26:44.225Z,2.23
2023-05-17T12:29:50.302Z,2.57
2023-05-17T12:32:56.739Z,3.70
2023-05-17T12:36:04.455Z,1.97
2023-05-17T12:39:12.453Z,2.17
2023-05-17T12:42:20.485Z,1.93
2023-05-17T12:45:27.146Z,2.27
2023-05-17T12:48:34.961Z,2.93
2023-05-17T12:51:43.463Z,6.47
2023-05-17T12:54:50.552Z,10.43
2023-05-17T12:57:58.357Z,7.90
2023-05-17T13:01:07.203Z,4.53
2023-05-17T13:04:14.442Z,7.20
2023-05-17T13:07:25.027Z,5.00
2023-05-17T13:10:31.577Z,7.50
2023-05-17T13:13:39.605Z,4.80
2023-05-17T13:16:47.265Z,6.23
2023-05-17T13:19:53.884Z,6.97
2023-05-17T13:23:00.377Z,5.10
2023-05-17T13:26:06.462Z,7.30
2023-05-17T13:29:14.332Z,8.87
2023-05-17T13:32:20.788Z,12.30
2023-05-17T13:35:26.988Z,7.73
2023-05-17T13:38:33.222Z,4.43
2023-05-17T13:41:39.674Z,7.90
2023-05-17T13:44:47.493Z,8.67
2023-05-17T13:47:53.992Z,5.93
2023-05-17T13:51:00.695Z,7.50
2023-05-17T13:54:07.916Z,5.60
2023-05-17T13:57:14.176Z,17.47
2023-05-17T14:00:22.502Z,13.43
2023-05-17T14:03:28.781Z,20.37
2023-05-17T14:06:34.933Z,6.23
2023-05-17T14:09:41.329Z,6.30
2023-05-17T14:12:48.030Z,17.00
2023-05-17T14:15:56.129Z,16.30
2023-05-17T14:19:04.781Z,12.87
2023-05-17T14:22:11.746Z,7.90
2023-05-17T14:25:18.366Z,6.77
2023-05-17T14:28:24.740Z,10.60
2023-05-17T14:31:32.642Z,11.27
2023-05-17T14:34:39.133Z,13.10
2023-05-17T14:37:45.535Z,12.00
2023-05-17T14:40:51.843Z,12.40
2023-05-17T14:43:58.117Z,10.23
2023-05-17T14:47:06.573Z,10.77
2023-05-17T14:50:13.007Z,7.13
2023-05-17T14:53:19.450Z,8.97
2023-05-17T14:56:26.950Z,5.30
2023-05-17T14:59:33.534Z,10.50
2023-05-17T15:02:41.434Z,8.77
2023-05-17T15:05:47.785Z,8.27
2023-05-17T15:08:55.048Z,14.80
2023-05-17T15:12:01.486Z,22.67
2023-05-17T15:15:09.004Z,34.70
2023-05-17T15:18:16.852Z,41.33
2023-05-17T15:21:23.102Z,30.47
2023-05-17T15:24:29.652Z,29.40
2023-05-17T15:27:35.501Z,15.53
2023-05-17T15:30:42.292Z,15.37
2023-05-17T15:33:49.830Z,6.50
2023-05-17T15:36:57.024Z,3.50
2023-05-17T15:40:09.388Z,5.47
2023-05-17T15:43:15.555Z,5.77
2023-05-17T15:46:22.073Z,3.70
2023-05-17T15:49:29.849Z,5.07
2023-05-17T15:52:36.276Z,6.73
2023-05-17T15:55:42.578Z,7.33
2023-05-17T15:58:49.299Z,4.27
2023-05-17T16:01:55.808Z,8.90
2023-05-17T16:05:04.264Z,5.67
2023-05-17T16:08:12.452Z,6.53
2023-05-17T16:11:18.736Z,5.60
2023-05-17T16:14:25.099Z,7.83
2023-05-17T16:17:31.616Z,13.73
2023-05-17T16:20:39.675Z,9.87
2023-05-17T16:23:46.620Z,6.83
2023-05-17T16:26:52.918Z,14.73
2023-05-17T16:29:59.364Z,10.90
2023-05-17T16:33:08.326Z,23.17
2023-05-17T16:36:16.538Z,16.40
2023-05-17T16:39:23.148Z,16.57
2023-05-17T16:42:31.129Z,18.10
2023-05-17T16:45:37.422Z,19.63
2023-05-17T16:48:43.632Z,18.97
2023-05-17T16:51:52.414Z,17.67
2023-05-17T16:55:03.514Z,15.47
2023-05-17T16:58:10.270Z,17.10
2023-05-17T17:01:17.054Z,10.43
2023-05-17T17:04:23.433Z,14.43
2023-05-17T17:07:31.113Z,7.13
2023-05-17T17:10:37.594Z,12.20
2023-05-17T17:13:43.824Z,8.23
2023-05-17T17:16:49.861Z,9.07
2023-05-17T17:19:56.490Z,14.80
2023-05-17T17:23:04.045Z,11.70
2023-05-17T17:26:11.380Z,6.27
2023-05-17T17:29:17.801Z,8.33
2023-05-17T17:32:24.035Z,9.43
2023-05-17T17:35:29.928Z,11.83
2023-05-17T17:38:37.225Z,17.87
2023-05-17T17:41:43.312Z,24.63
2023-05-17T17:44:49.433Z,33.13
2023-05-17T17:47:55.700Z,24.70
2023-05-17T17:51:01.841Z,21.70
2023-05-17T17:54:09.154Z,25.97
2023-05-17T17:57:15.598Z,28.20
2023-05-17T18:00:22.273Z,31.10
2023-05-17T18:03:28.599Z,11.63
2023-05-17T18:06:35.107Z,10.87
2023-05-17T18:09:43.050Z,15.87
2023-05-17T18:12:51.503Z,20.07
2023-05-17T18:15:58.008Z,15.60
2023-05-17T18:19:04.306Z,25.97
2023-05-17T18:22:10.468Z,36.03
2023-05-17T18:25:18.153Z,21.13
2023-05-17T18:28:38.038Z,15.43
2023-05-17T18:31:47.550Z,31.83
2023-05-17T18:34:55.096Z,56.53
2023-05-17T18:38:01.497Z,17.60
2023-05-17T18:41:08.809Z,21.43
2023-05-17T18:44:15.842Z,20.40
2023-05-17T18:47:23.587Z,13.47
2023-05-17T18:50:29.881Z,13.37
2023-05-17T18:53:37.030Z,16.03
2023-05-17T18:56:44.560Z,12.23
2023-05-17T18:59:50.978Z,14.23
2023-05-17T19:02:57.003Z,9.17
2023-05-17T19:06:03.198Z,13.60
2023-05-17T19:09:09.477Z,18.87
2023-05-17T19:12:17.316Z,27.40
2023-05-17T19:15:23.786Z,30.30
2023-05-17T19:18:30.356Z,33.97
2023-05-17T19:21:36.634Z,13.13
2023-05-17T19:24:42.862Z,11.53
2023-05-17T19:27:50.570Z,17.03
2023-05-17T19:30:57.109Z,17.43
2023-05-17T19:34:03.348Z,14.93
2023-05-17T19:37:09.546Z,13.33
2023-05-17T19:40:18.913Z,12.23
2023-05-17T19:43:27.244Z,13.67
2023-05-17T19:46:33.601Z,8.83
2023-05-17T19:49:40.167Z,10.30
2023-05-17T19:52:46.607Z,14.27
2023-05-17T19:55:52.707Z,19.93
2023-05-17T19:59:00.113Z,20.23
2023-05-17T20:02:06.802Z,9.90
2023-05-17T20:05:13.185Z,11.97
2023-05-17T20:08:19.333Z,16.40
2023-05-17T20:11:25.406Z,12.23
2023-05-17T20:14:32.854Z,8.97
2023-05-17T20:17:39.404Z,9.57
2023-05-17T20:20:45.952Z,4.80
2023-05-17T20:23:56.773Z,6.53
2023-05-17T20:27:03.055Z,7.33
2023-05-17T20:30:11.790Z,8.23
2023-05-17T20:33:21.537Z,11.27
2023-05-17T20:36:27.746Z,7.67
2023-05-17T20:39:33.711Z,14.23
2023-05-17T20:42:40.522Z,10.80
2023-05-17T20:45:49.985Z,12.83
2023-05-17T20:48:56.257Z,12.47
2023-05-17T20:52:03.597Z,13.40
2023-05-17T20:55:10.601Z,9.67
2023-05-17T20:58:16.964Z,7.97
2023-05-17T21:01:25.250Z,13.63
2023-05-17T21:04:31.387Z,20.73
2023-05-17T21:07:39.345Z,15.50
2023-05-17T21:10:46.594Z,9.80
2023-05-17T21:13:52.974Z,10.03
2023-05-17T21:17:02.129Z,7.50
2023-05-17T21:20:09.596Z,4.90
2023-05-17T21:23:15.889Z,7.93
2023-05-17T21:26:23.280Z,6.93
2023-05-17T21:29:29.462Z,5.47
2023-05-17T21:32:37.320Z,13.03
2023-05-17T21:35:43.831Z,18.27
2023-05-17T21:38:50.111Z,10.20
2023-05-17T21:41:56.153Z,13.77
2023-05-17T21:45:02.360Z,11.47
2023-05-17T21:48:10.463Z,10.83
2023-05-17T21:51:16.973Z,10.73
2023-05-17T21:54:25.670Z,5.93
2023-05-17T21:57:36.177Z,7.07
2023-05-17T22:00:43.628Z,6.03
2023-05-17T22:03:52.539Z,7.87
2023-05-17T22:06:58.848Z,8.67
2023-05-17T22:10:09.341Z,9.47
2023-05-17T22:13:18.441Z,12.23
2023-05-17T22:16:25.913Z,10.10
2023-05-17T22:19:36.764Z,8.87
2023-05-17T22:22:42.948Z,7.07
2023-05-17T22:25:49.404Z,7.67
2023-05-17T22:28:55.852Z,8.83
2023-05-17T22:32:02.059Z,6.00
2023-05-17T22:35:10.439Z,5.13
2023-05-17T22:38:16.692Z,6.20
2023-05-17T22:41:22.827Z,5.47
2023-05-17T22:44:28.930Z,3.37
2023-05-17T22:47:35.431Z,3.30
2023-05-17T22:50:43.185Z,2.87
2023-05-17T22:53:49.564Z,3.33
2023-05-17T22:56:55.725Z,1.90
2023-05-17T23:00:01.694Z,3.73
2023-05-17T23:03:07.921Z,2.50
2023-05-17T23:06:15.614Z,9.43
2023-05-17T23:09:23.247Z,3.53
2023-05-17T23:12:29.436Z,5.83
2023-05-17T23:15:37.263Z,5.50
2023-05-17T23:18:44.529Z,3.47
2023-05-17T23:21:52.235Z,5.23
2023-05-17T23:24:59.074Z,2.93
2023-05-17T23:28:05.738Z,3.17
2023-05-17T23:31:11.901Z,4.83
2023-05-17T23:34:18.841Z,4.30
2023-05-17T23:37:26.633Z,6.63
2023-05-17T23:40:32.935Z,10.63
2023-05-17T23:43:38.942Z,3.93
2023-05-17T23:46:45.225Z,9.43
2023-05-17T23:49:51.579Z,4.80
2023-05-17T23:53:03.503Z,3.60
2023-05-17T23:56:09.841Z,3.23
2023-05-17T23:59:15.743Z,4.27
